Time;durP1;ratioP1;P1;durP2;ratioP2;P2;SDS_P1;SDS_P2;PMS_P1;PMS_P2;Temp;Humidity;BMP_temperature;BMP_pressure;BME280_temperature;BME280_humidity;BME280_pressure;Samples;Min_cycle;Max_cycle;Signal;HPM_P1;HPM_P2
2021/10/07 00:00:49;;;;;;;18.87;6.12;;;;;;;;;;4274755;33;20141;-79
2021/10/07 00:03:17;;;;;;;13.85;6.12;;;;;;;;;;4275475;33;20205;-78
2021/10/07 00:05:52;;;;;;;16.87;5.78;;;;;;;;;;4274931;33;20141;-79
2021/10/07 00:08:25;;;;;;;18.75;5.78;;;;;;;;;;4274740;33;20140;-79
2021/10/07 00:10:53;;;;;;;24.98;6.05;;;;;;;;;;4275221;33;20176;-79
2021/10/07 00:13:21;;;;;;;19.42;5.65;;;;;;;;;;4261655;33;20166;-78
2021/10/07 00:15:49;;;;;;;17.17;5.47;;;;;;;;;;4273445;33;20290;-79
2021/10/07 00:18:26;;;;;;;23.85;6.28;;;;;;;;;;4262409;33;20188;-79
2021/10/07 00:20:54;;;;;;;12.48;4.15;;;;;;;;;;4275173;33;20140;-79
2021/10/07 00:23:24;;;;;;;18.23;4.90;;;;;;;;;;4274646;33;20547;-79
2021/10/07 00:25:50;;;;;;;17.50;5.40;;;;;;;;;;4274714;33;20129;-78
2021/10/07 00:28:23;;;;;;;17.33;4.50;;;;;;;;;;4274418;33;20209;-79
2021/10/07 00:30:50;;;;;;;13.13;4.20;;;;;;;;;;4274619;33;20159;-79
2021/10/07 00:36:10;;;;;;;10.60;4.03;;;;;;;;;;4258949;33;20225;-79
2021/10/07 00:41:32;;;;;;;19.23;4.57;;;;;;;;;;4281290;33;20195;-79
2021/10/07 00:44:21;;;;;;;13.45;4.32;;;;;;;;;;4275873;33;20220;-79
2021/10/07 00:47:02;;;;;;;15.57;4.55;;;;;;;;;;4275768;33;20568;-79
2021/10/07 00:49:35;;;;;;;18.15;4.57;;;;;;;;;;4288969;33;20199;-79
2021/10/07 00:52:02;;;;;;;13.73;4.07;;;;;;;;;;4288877;33;20199;-79
2021/10/07 00:54:30;;;;;;;10.80;3.83;;;;;;;;;;4275337;33;20162;-79
2021/10/07 00:56:57;;;;;;;18.25;4.25;;;;;;;;;;4288278;33;20653;-79
2021/10/07 00:59:36;;;;;;;10.90;3.75;;;;;;;;;;4275168;33;20498;-79
2021/10/07 01:02:05;;;;;;;22.77;4.82;;;;;;;;;;4275673;33;20258;-79
2021/10/07 01:04:41;;;;;;;14.90;4.40;;;;;;;;;;4275412;33;20255;-79
2021/10/07 01:07:18;;;;;;;15.63;4.22;;;;;;;;;;4275746;33;20157;-79
2021/10/07 01:09:44;;;;;;;12.02;3.90;;;;;;;;;;4288926;33;20634;-79
2021/10/07 01:12:12;;;;;;;14.70;4.20;;;;;;;;;;4274313;33;20179;-79
2021/10/07 01:14:59;;;;;;;13.23;3.95;;;;;;;;;;4275176;33;20591;-79
2021/10/07 01:17:36;;;;;;;12.57;3.72;;;;;;;;;;4288214;33;20133;-79
2021/10/07 01:20:13;;;;;;;11.32;4.30;;;;;;;;;;4288607;33;20196;-79
2021/10/07 01:22:38;;;;;;;12.13;3.70;;;;;;;;;;4288382;33;20136;-79
2021/10/07 01:25:04;;;;;;;19.62;4.60;;;;;;;;;;4288384;33;20160;-79
2021/10/07 01:27:37;;;;;;;12.75;3.75;;;;;;;;;;4287836;33;20216;-79
2021/10/07 01:30:05;;;;;;;13.73;3.85;;;;;;;;;;4274732;33;20157;-79
2021/10/07 01:32:36;;;;;;;11.07;3.97;;;;;;;;;;4288016;33;20668;-79
2021/10/07 01:35:02;;;;;;;10.32;3.45;;;;;;;;;;4274795;33;20208;-79
2021/10/07 01:37:30;;;;;;;14.87;3.30;;;;;;;;;;4287962;33;20145;-79
2021/10/07 01:40:12;;;;;;;;;;;;;;;;;;;;;
2021/10/07 01:43:12;;;;;;;11.48;3.40;;;;;;;;;;4287548;33;20160;-79
2021/10/07 01:46:23;;;;;;;15.63;3.78;;;;;;;;;;4274192;33;20161;-79
2021/10/07 01:49:00;;;;;;;11.20;3.53;;;;;;;;;;4285374;33;20231;-78
2021/10/07 01:51:47;;;;;;;;;;;;;;;;;;;;;
2021/10/07 01:54:26;;;;;;;11.23;3.10;;;;;;;;;;4288082;33;20444;-80
2021/10/07 01:56:55;;;;;;;6.18;3.30;;;;;;;;;;4288723;33;20206;-80
2021/10/07 01:59:33;;;;;;;10.52;3.33;;;;;;;;;;4287576;33;20202;-81
2021/10/07 02:01:58;;;;;;;12.32;2.90;;;;;;;;;;4286869;33;20155;-80
2021/10/07 02:04:24;;;;;;;7.18;2.60;;;;;;;;;;4287991;33;20163;-80
2021/10/07 02:06:49;;;;;;;10.75;3.20;;;;;;;;;;4287750;33;20476;-80
2021/10/07 02:09:17;;;;;;;11.77;3.33;;;;;;;;;;4274596;33;20165;-80
2021/10/07 02:11:43;;;;;;;14.75;2.60;;;;;;;;;;4274468;33;20160;-80
2021/10/07 02:14:08;;;;;;;13.68;3.12;;;;;;;;;;4274828;33;20227;-80
2021/10/07 02:16:37;;;;;;;9.90;2.72;;;;;;;;;;4287369;33;20153;-80
2021/10/07 02:19:07;;;;;;;9.40;2.75;;;;;;;;;;4274329;33;20176;-80
2021/10/07 02:21:35;;;;;;;13.38;3.10;;;;;;;;;;4287993;33;20204;-80
2021/10/07 02:24:09;;;;;;;11.88;3.33;;;;;;;;;;4287550;33;20246;-80
2021/10/07 02:26:35;;;;;;;17.87;4.25;;;;;;;;;;4274238;33;20153;-80
2021/10/07 02:29:01;;;;;;;14.40;3.83;;;;;;;;;;4287700;33;20195;-80
2021/10/07 02:31:29;;;;;;;12.73;3.12;;;;;;;;;;4274136;33;20191;-80
2021/10/07 02:33:55;;;;;;;18.67;4.30;;;;;;;;;;4287101;33;20222;-80
2021/10/07 02:36:25;;;;;;;12.57;3.65;;;;;;;;;;4287160;33;20610;-80
2021/10/07 02:38:51;;;;;;;18.15;3.95;;;;;;;;;;4287363;33;20177;-80
2021/10/07 02:41:19;;;;;;;14.13;4.15;;;;;;;;;;4285975;33;20160;-80
2021/10/07 02:43:47;;;;;;;15.68;3.22;;;;;;;;;;4287356;33;20156;-80
2021/10/07 02:46:18;;;;;;;13.57;3.50;;;;;;;;;;4287436;33;20152;-80
2021/10/07 02:49:05;;;;;;;13.85;3.58;;;;;;;;;;4287773;33;20240;-80
2021/10/07 02:51:30;;;;;;;6.93;2.95;;;;;;;;;;4287713;33;20137;-80
2021/10/07 02:54:00;;;;;;;9.30;2.87;;;;;;;;;;4286980;33;20183;-80
2021/10/07 02:56:29;;;;;;;12.98;3.10;;;;;;;;;;4273958;33;20157;-80
2021/10/07 02:58:54;;;;;;;11.65;3.80;;;;;;;;;;4286880;33;20184;-80
2021/10/07 03:01:19;;;;;;;18.20;4.72;;;;;;;;;;4274246;33;20156;-80
2021/10/07 03:03:48;;;;;;;17.98;4.70;;;;;;;;;;4276780;33;20216;-80
2021/10/07 03:06:13;;;;;;;14.23;4.70;;;;;;;;;;4276778;33;20157;-80
2021/10/07 03:08:38;;;;;;;26.92;5.15;;;;;;;;;;4290078;33;20200;-80
2021/10/07 03:11:04;;;;;;;18.77;4.78;;;;;;;;;;4289801;33;20164;-80
2021/10/07 03:13:32;;;;;;;14.85;4.40;;;;;;;;;;4289662;33;20183;-80
2021/10/07 03:16:02;;;;;;;12.37;4.72;;;;;;;;;;4289963;33;20207;-80
2021/10/07 03:18:28;;;;;;;13.75;5.07;;;;;;;;;;4276865;33;20263;-80
2021/10/07 03:20:53;;;;;;;26.30;7.47;;;;;;;;;;4289706;33;20543;-79
2021/10/07 03:23:18;;;;;;;26.20;8.82;;;;;;;;;;4276387;33;20519;-79
2021/10/07 03:25:44;;;;;;;22.67;8.10;;;;;;;;;;4289670;33;20192;-79
2021/10/07 03:28:14;;;;;;;23.17;8.18;;;;;;;;;;4276578;33;20165;-79
2021/10/07 03:30:43;;;;;;;22.35;7.43;;;;;;;;;;4277302;33;20160;-80
2021/10/07 03:33:09;;;;;;;17.25;7.00;;;;;;;;;;4289398;33;20145;-79
2021/10/07 03:35:43;;;;;;;20.73;8.07;;;;;;;;;;4276873;33;20195;-78
2021/10/07 03:38:30;;;;;;;;;;;;;;;;;;;;;
2021/10/07 03:40:59;;;;;;;17.52;6.47;;;;;;;;;;4290542;33;20167;-79
2021/10/07 03:43:39;;;;;;;15.50;6.20;;;;;;;;;;4276232;33;20179;-79
2021/10/07 03:48:53;;;;;;;17.60;8.35;;;;;;;;;;4284078;33;20195;-79
2021/10/07 03:51:34;;;;;;;25.67;9.88;;;;;;;;;;4303438;33;20175;-79
2021/10/07 03:54:35;;;;;;;;;;;;;;;;;;;;;
2021/10/07 03:57:06;;;;;;;21.80;9.05;;;;;;;;;;4304056;33;20179;-79
2021/10/07 03:59:41;;;;;;;19.23;6.00;;;;;;;;;;4290646;33;20219;-79
2021/10/07 04:02:09;;;;;;;19.02;6.40;;;;;;;;;;4289659;33;20156;-78
2021/10/07 04:04:37;;;;;;;20.52;6.60;;;;;;;;;;4290763;33;20160;-78
2021/10/07 04:07:11;;;;;;;18.73;7.05;;;;;;;;;;4303187;33;20148;-78
2021/10/07 04:09:45;;;;;;;15.85;5.72;;;;;;;;;;4290310;33;20155;-78
2021/10/07 04:12:39;;;;;;;17.85;5.70;;;;;;;;;;4303780;33;20179;-79
2021/10/07 04:15:36;;;;;;;18.58;6.22;;;;;;;;;;4289453;33;20222;-78
2021/10/07 04:18:01;;;;;;;14.63;4.43;;;;;;;;;;4290983;33;20238;-78
2021/10/07 04:20:45;;;;;;;17.67;5.78;;;;;;;;;;4303858;33;20472;-78
2021/10/07 04:23:14;;;;;;;18.60;4.55;;;;;;;;;;4290196;33;20617;-78
2021/10/07 04:25:45;;;;;;;16.25;3.90;;;;;;;;;;4303489;33;20140;-78
2021/10/07 04:28:14;;;;;;;16.20;3.92;;;;;;;;;;4303343;33;20175;-78
2021/10/07 04:30:45;;;;;;;16.27;3.67;;;;;;;;;;4303322;33;20204;-79
2021/10/07 04:33:14;;;;;;;10.63;3.50;;;;;;;;;;4290163;33;20219;-79
2021/10/07 04:35:50;;;;;;;18.40;4.35;;;;;;;;;;4303473;33;20144;-79
2021/10/07 04:38:41;;;;;;;11.45;3.78;;;;;;;;;;4303571;33;20131;-79
2021/10/07 04:41:11;;;;;;;13.07;4.25;;;;;;;;;;4303559;33;20156;-79
2021/10/07 04:43:46;;;;;;;12.20;3.37;;;;;;;;;;4289750;33;20173;-79
2021/10/07 04:46:56;;;;;;;8.32;3.17;;;;;;;;;;4290145;33;20206;-79
2021/10/07 04:49:25;;;;;;;12.68;3.50;;;;;;;;;;4272635;33;20227;-79
2021/10/07 04:51:59;;;;;;;12.65;3.90;;;;;;;;;;4302802;33;20149;-78
2021/10/07 04:55:00;;;;;;;10.20;3.28;;;;;;;;;;4303325;33;20165;-78
2021/10/07 04:57:26;;;;;;;13.18;3.50;;;;;;;;;;4258426;33;20160;-78
2021/10/07 04:59:56;;;;;;;13.02;3.80;;;;;;;;;;4245988;33;20308;-79
2021/10/07 05:02:33;;;;;;;11.30;3.50;;;;;;;;;;4258197;33;20168;-79
2021/10/07 05:05:15;;;;;;;9.45;3.42;;;;;;;;;;4268892;33;20499;-78
2021/10/07 05:07:44;;;;;;;9.63;3.00;;;;;;;;;;4303094;33;20136;-77
2021/10/07 05:13:06;;;;;;;14.80;3.42;;;;;;;;;;4271624;33;20172;-78
2021/10/07 05:15:39;;;;;;;8.73;3.50;;;;;;;;;;4299122;33;20180;-78
2021/10/07 05:18:21;;;;;;;10.27;3.28;;;;;;;;;;4257644;33;20184;-78
2021/10/07 05:20:53;;;;;;;10.00;4.10;;;;;;;;;;4257885;33;20145;-78
2021/10/07 05:23:33;;;;;;;19.48;5.62;;;;;;;;;;4257674;33;20133;-78
2021/10/07 05:25:59;;;;;;;17.08;5.53;;;;;;;;;;4257191;33;20153;-78
2021/10/07 05:28:24;;;;;;;14.63;5.40;;;;;;;;;;4257688;33;20662;-76
2021/10/07 05:31:00;;;;;;;12.88;4.75;;;;;;;;;;4257677;33;20164;-77
2021/10/07 05:33:33;;;;;;;11.55;5.62;;;;;;;;;;4257487;33;20619;-78
2021/10/07 05:36:01;;;;;;;10.50;5.65;;;;;;;;;;4257123;33;20525;-77
2021/10/07 05:38:29;;;;;;;20.52;6.47;;;;;;;;;;4257411;33;20188;-79
2021/10/07 05:40:55;;;;;;;12.68;6.53;;;;;;;;;;4257209;33;20188;-76
2021/10/07 05:43:24;;;;;;;15.43;6.55;;;;;;;;;;4293133;33;20248;-78
2021/10/07 05:46:44;;;;;;;15.82;6.28;;;;;;;;;;4288694;33;20168;-80
2021/10/07 05:49:38;;;;;;;17.83;7.20;;;;;;;;;;4298081;33;20211;-80
2021/10/07 05:52:44;;;;;;;13.82;6.03;;;;;;;;;;4257746;33;20220;-79
2021/10/07 06:08:47;;;;;;;15.80;8.18;;;;;;;;;;4080535;35;20169;-79
2021/10/07 06:21:26;;;;;;;24.98;9.57;;;;;;;;;;4058331;35;20663;-79
2021/10/07 06:24:05;;;;;;;23.27;9.38;;;;;;;;;;4064839;35;20319;-78
2021/10/07 06:29:56;;;;;;;;;;;;;;;;;;;;;
2021/10/07 06:33:00;;;;;;;;;;;;;;;;;;;;;
2021/10/07 06:39:01;;;;;;;22.37;10.80;;;;;;;;;;4187048;34;20170;-80
2021/10/07 06:41:56;;;;;;;25.50;11.55;;;;;;;;;;4189233;34;20241;-78
2021/10/07 06:44:50;;;;;;;22.98;11.05;;;;;;;;;;4199634;34;20186;-80
2021/10/07 06:47:07;;;;;;;27.48;11.07;;;;;;;;;;4186441;34;20273;-78
2021/10/07 06:49:53;;;;;;;20.70;11.60;;;;;;;;;;4215405;34;20569;-80
2021/10/07 06:56:08;;;;;;;27.80;12.93;;;;;;;;;;4257135;33;20274;-79
2021/10/07 06:58:52;;;;;;;26.23;11.18;;;;;;;;;;4272756;33;20208;-79
2021/10/07 07:01:18;;;;;;;21.67;11.48;;;;;;;;;;4269308;33;20492;-79
2021/10/07 07:16:07;;;;;;;;;;;;;;;;;;;;;
2021/10/07 07:19:19;;;;;;;31.67;12.75;;;;;;;;;;4262808;33;20183;-81
2021/10/07 07:22:15;;;;;;;;;;;;;;;;;;;;;
2021/10/07 07:28:21;;;;;;;22.23;12.65;;;;;;;;;;4264458;33;20172;-78
2021/10/07 07:31:19;;;;;;;22.83;11.52;;;;;;;;;;4251623;33;20224;-79
2021/10/07 07:39:56;;;;;;;28.52;13.45;;;;;;;;;;4256168;33;20167;-79
2021/10/07 07:49:29;;;;;;;28.83;12.07;;;;;;;;;;4187936;34;20175;-79
2021/10/07 08:00:36;;;;;;;24.98;10.90;;;;;;;;;;4189140;34;20277;-79
2021/10/07 08:03:31;;;;;;;21.87;10.23;;;;;;;;;;4210141;33;20269;-79
2021/10/07 08:09:14;;;;;;;17.02;7.90;;;;;;;;;;4189074;34;20191;-79
2021/10/07 08:14:59;;;;;;;15.65;6.62;;;;;;;;;;4216384;34;20489;-79
2021/10/07 08:20:42;;;;;;;13.43;4.95;;;;;;;;;;4220190;34;20273;-78
2021/10/07 08:23:12;;;;;;;18.35;5.65;;;;;;;;;;4210487;34;20174;-79
2021/10/07 08:28:40;;;;;;;13.48;6.97;;;;;;;;;;4193680;34;20664;-80
2021/10/07 08:37:04;;;;;;;12.93;5.70;;;;;;;;;;4229851;34;20594;-80
2021/10/07 08:39:50;;;;;;;10.80;6.30;;;;;;;;;;4229936;33;20187;-79
2021/10/07 08:42:57;;;;;;;;;;;;;;;;;;;;;
2021/10/07 08:45:55;;;;;;;10.60;5.82;;;;;;;;;;4230540;33;20161;-79
2021/10/07 08:54:42;;;;;;;17.92;7.43;;;;;;;;;;4216212;34;20179;-80
2021/10/07 09:04:03;;;;;;;8.55;5.62;;;;;;;;;;4224398;34;20547;-80
2021/10/07 09:07:15;;;;;;;11.55;6.00;;;;;;;;;;4250938;33;20154;-80
2021/10/07 09:09:41;;;;;;;13.30;5.75;;;;;;;;;;4230001;33;20315;-77
2021/10/07 09:12:36;;;;;;;;;;;;;;;;;;;;;
2021/10/07 09:24:46;;;;;;;;;;;;;;;;;;;;;
2021/10/07 09:27:24;;;;;;;10.52;6.00;;;;;;;;;;4288639;33;20218;-80
2021/10/07 09:30:37;;;;;;;15.52;7.30;;;;;;;;;;4288490;33;20140;-80
2021/10/07 09:33:40;;;;;;;;;;;;;;;;;;;;;
2021/10/07 09:36:42;;;;;;;13.15;6.37;;;;;;;;;;4243304;33;20150;-80
2021/10/07 09:39:16;;;;;;;8.50;5.45;;;;;;;;;;4243699;33;20172;-80
2021/10/07 09:41:45;;;;;;;10.07;5.25;;;;;;;;;;4231199;33;20212;-80
2021/10/07 09:44:11;;;;;;;10.85;5.93;;;;;;;;;;4274427;33;20220;-79
2021/10/07 09:46:55;;;;;;;10.63;5.75;;;;;;;;;;4288492;33;20149;-79
2021/10/07 09:53:12;;;;;;;10.90;4.97;;;;;;;;;;4262747;33;20180;-79
2021/10/07 09:55:44;;;;;;;11.38;5.18;;;;;;;;;;4250568;33;20278;-81
2021/10/07 10:01:39;;;;;;;10.52;4.97;;;;;;;;;;4189492;34;20536;-80
2021/10/07 10:04:16;;;;;;;27.75;6.35;;;;;;;;;;4254550;33;20228;-80
2021/10/07 10:06:50;;;;;;;8.60;3.95;;;;;;;;;;4268344;33;20207;-79
2021/10/07 10:12:40;;;;;;;18.73;4.30;;;;;;;;;;4270929;33;20180;-80
2021/10/07 10:15:21;;;;;;;10.73;4.00;;;;;;;;;;4256805;33;20560;-79
2021/10/07 10:18:09;;;;;;;12.02;4.45;;;;;;;;;;4295907;33;20151;-80
2021/10/07 10:21:04;;;;;;;9.63;3.12;;;;;;;;;;4301279;33;20148;-80
2021/10/07 10:23:38;;;;;;;15.52;4.30;;;;;;;;;;4257394;33;20599;-80
2021/10/07 10:26:27;;;;;;;11.10;3.55;;;;;;;;;;4254200;33;20188;-80
2021/10/07 10:28:58;;;;;;;13.48;3.08;;;;;;;;;;4293093;33;20190;-80
2021/10/07 10:31:38;;;;;;;15.63;3.80;;;;;;;;;;4302012;33;20559;-79
2021/10/07 10:47:26;;;;;;;13.98;2.40;;;;;;;;;;4121501;34;20238;-79
2021/10/07 10:50:31;;;;;;;;;;;;;;;;;;;;;
2021/10/07 10:54:10;;;;;;;18.73;2.65;;;;;;;;;;4212588;34;20223;-79
2021/10/07 10:56:20;;;;;;;8.80;1.42;;;;;;;;;;4205759;34;20190;-79
2021/10/07 10:59:44;;;;;;;15.25;2.40;;;;;;;;;;4240908;33;20177;-79
2021/10/07 11:09:14;;;;;;;;;;;;;;;;;;;;;
2021/10/07 11:24:48;;;;;;;11.32;6.65;;;;;;;;;;4230370;34;20165;-80
2021/10/07 11:27:55;;;;;;;;;;;;;;;;;;;;;
2021/10/07 11:40:11;;;;;;;;;;;;;;;;;;;;;
2021/10/07 11:42:47;;;;;;;30.35;8.75;;;;;;;;;;4214215;34;20201;-79
2021/10/07 11:52:20;;;;;;;;;;;;;;;;;;;;;
2021/10/07 11:55:19;;;;;;;;;;;;;;;;;;;;;
2021/10/07 11:58:39;;;;;;;;;;;;;;;;;;;;;
2021/10/07 12:04:46;;;;;;;;;;;;;;;;;;;;;
2021/10/07 12:07:20;;;;;;;18.27;5.00;;;;;;;;;;4287692;33;20224;-81
2021/10/07 12:10:11;;;;;;;13.52;4.30;;;;;;;;;;4289357;33;20221;-81
2021/10/07 12:13:18;;;;;;;;;;;;;;;;;;;;;
2021/10/07 12:19:19;;;;;;;17.37;4.75;;;;;;;;;;4289226;33;20195;-80
2021/10/07 12:22:04;;;;;;;18.27;4.20;;;;;;;;;;4287694;33;20614;-80
2021/10/07 12:24:38;;;;;;;12.65;2.95;;;;;;;;;;4287895;33;20187;-80
2021/10/07 12:27:10;;;;;;;10.40;3.17;;;;;;;;;;4287198;33;20195;-80
2021/10/07 12:29:44;;;;;;;7.70;2.80;;;;;;;;;;4288743;33;20585;-80
2021/10/07 12:32:14;;;;;;;9.55;3.33;;;;;;;;;;4287306;33;20184;-79
2021/10/07 12:38:31;;;;;;;8.57;3.25;;;;;;;;;;4258638;33;20224;-81
2021/10/07 12:47:19;;;;;;;;;;;;;;;;;;;;;
2021/10/07 12:50:31;;;;;;;11.90;2.80;;;;;;;;;;4244025;33;20146;-81
2021/10/07 12:53:13;;;;;;;7.57;2.53;;;;;;;;;;4244889;33;20177;-81
2021/10/07 12:56:08;;;;;;;15.48;3.53;;;;;;;;;;4257809;33;20150;-81
2021/10/07 12:59:00;;;;;;;12.80;2.53;;;;;;;;;;4256989;33;20184;-81
2021/10/07 13:01:53;;;;;;;18.92;3.05;;;;;;;;;;4265171;33;20149;-83
2021/10/07 13:07:10;;;;;;;9.15;2.05;;;;;;;;;;4288655;33;20204;-80
2021/10/07 13:09:47;;;;;;;33.17;4.55;;;;;;;;;;4288201;33;20172;-81
2021/10/07 13:12:28;;;;;;;13.02;3.00;;;;;;;;;;4275289;33;20212;-81
2021/10/07 13:14:56;;;;;;;5.95;2.10;;;;;;;;;;4287644;33;20211;-82
2021/10/07 13:17:22;;;;;;;9.15;2.33;;;;;;;;;;4288138;33;20180;-81
2021/10/07 13:25:53;;;;;;;18.35;2.97;;;;;;;;;;4174167;34;20247;-82
2021/10/07 13:28:34;;;;;;;;;;;;;;;;;;;;;
2021/10/07 13:34:36;;;;;;;;;;;;;;;;;;;;;
2021/10/07 13:37:12;;;;;;;9.10;3.72;;;;;;;;;;4214436;34;20205;-80
2021/10/07 13:40:11;;;;;;;;;;;;;;;;;;;;;
2021/10/07 13:43:04;;;;;;;30.25;4.65;;;;;;;;;;4270984;33;20157;-81
2021/10/07 13:48:36;;;;;;;12.88;5.20;;;;;;;;;;4271539;33;20172;-81
2021/10/07 13:51:04;;;;;;;11.07;4.40;;;;;;;;;;4271271;33;20220;-80
2021/10/07 13:57:02;;;;;;;;;;;;;;;;;;;;;
2021/10/07 13:59:59;;;;;;;10.27;6.45;;;;;;;;;;4257261;33;20141;-81
2021/10/07 14:05:35;;;;;;;13.43;6.43;;;;;;;;;;4211546;34;20193;-75
2021/10/07 14:08:13;;;;;;;27.20;7.32;;;;;;;;;;4248103;33;20149;-80
2021/10/07 14:10:54;;;;;;;52.08;9.75;;;;;;;;;;4266405;33;20152;-80
2021/10/07 14:16:36;;;;;;;29.25;6.93;;;;;;;;;;4282704;33;20527;-80
2021/10/07 14:19:14;;;;;;;13.48;6.40;;;;;;;;;;4288424;33;20188;-80
2021/10/07 14:21:45;;;;;;;13.73;5.97;;;;;;;;;;4288247;33;20218;-80
2021/10/07 14:24:27;;;;;;;9.55;5.70;;;;;;;;;;4288302;33;20211;-79
2021/10/07 14:26:58;;;;;;;23.83;7.20;;;;;;;;;;4282266;33;20270;-79
2021/10/07 14:29:32;;;;;;;14.80;6.65;;;;;;;;;;4301723;33;20132;-79
2021/10/07 14:31:58;;;;;;;17.42;7.15;;;;;;;;;;4301944;33;20159;-81
2021/10/07 14:34:26;;;;;;;17.08;7.93;;;;;;;;;;4300714;33;20547;-80
2021/10/07 14:36:54;;;;;;;21.50;7.22;;;;;;;;;;4291497;33;20559;-81
2021/10/07 14:39:27;;;;;;;9.65;6.10;;;;;;;;;;4272961;33;20194;-80
2021/10/07 14:42:16;;;;;;;12.55;6.10;;;;;;;;;;4278152;33;20199;-80
2021/10/07 14:44:40;;;;;;;12.23;7.15;;;;;;;;;;4301441;33;20725;-80
2021/10/07 14:47:11;;;;;;;15.02;8.80;;;;;;;;;;4275749;33;20161;-80
2021/10/07 14:49:48;;;;;;;12.25;9.32;;;;;;;;;;4279809;33;20634;-80
2021/10/07 14:52:27;;;;;;;14.40;10.30;;;;;;;;;;4287457;33;20129;-79
2021/10/07 14:55:09;;;;;;;17.08;10.70;;;;;;;;;;4274373;33;20168;-79
2021/10/07 14:58:10;;;;;;;;;;;;;;;;;;;;;
2021/10/07 15:00:48;;;;;;;12.40;10.32;;;;;;;;;;4306500;33;20152;-81
2021/10/07 15:03:32;;;;;;;;;;;;;;;;;;;;;
2021/10/07 15:12:40;;;;;;;23.75;12.70;;;;;;;;;;4275527;33;20225;-80
2021/10/07 15:15:26;;;;;;;19.27;12.45;;;;;;;;;;4254242;33;20191;-80
2021/10/07 15:18:21;;;;;;;17.35;12.30;;;;;;;;;;4272341;33;20208;-80
2021/10/07 15:20:49;;;;;;;17.80;12.20;;;;;;;;;;4275323;33;20141;-80
2021/10/07 15:23:18;;;;;;;20.40;12.05;;;;;;;;;;4275547;33;20183;-80
2021/10/07 15:25:44;;;;;;;16.33;11.18;;;;;;;;;;4280644;33;20599;-80
2021/10/07 15:28:28;;;;;;;;;;;;;;;;;;;;;
2021/10/07 15:30:54;;;;;;;21.70;13.57;;;;;;;;;;4305949;33;20487;-80
2021/10/07 15:33:33;;;;;;;23.85;13.15;;;;;;;;;;4305641;33;20178;-80
2021/10/07 15:36:14;;;;;;;;;;;;;;;;;;;;;
2021/10/07 15:39:26;;;;;;;;;;;;;;;;;;;;;
2021/10/07 15:42:38;;;;;;;;;;;;;;;;;;;;;
2021/10/07 15:48:39;;;;;;;;;;;;;;;;;;;;;
2021/10/07 15:54:38;;;;;;;26.60;12.82;;;;;;;;;;4273386;33;20203;-80
2021/10/07 16:00:15;;;;;;;20.90;14.20;;;;;;;;;;4260103;33;20157;-81
2021/10/07 16:02:41;;;;;;;24.37;14.52;;;;;;;;;;4260083;33;20185;-80
2021/10/07 16:05:35;;;;;;;19.95;12.80;;;;;;;;;;4261189;33;20146;-80
2021/10/07 16:08:21;;;;;;;;;;;;;;;;;;;;;
2021/10/07 16:11:06;;;;;;;25.75;15.63;;;;;;;;;;4271558;33;20148;-80
2021/10/07 16:13:57;;;;;;;40.67;15.82;;;;;;;;;;4275745;33;20169;-80
2021/10/07 16:16:23;;;;;;;27.45;14.40;;;;;;;;;;4279895;33;20215;-80
2021/10/07 16:19:12;;;;;;;30.40;16.33;;;;;;;;;;4275776;33;20161;-80
2021/10/07 16:21:58;;;;;;;24.85;14.85;;;;;;;;;;4289361;33;20128;-80
2021/10/07 16:24:25;;;;;;;23.00;13.05;;;;;;;;;;4256958;33;20646;-79
2021/10/07 16:27:05;;;;;;;26.23;14.32;;;;;;;;;;4289573;33;20133;-80
2021/10/07 16:30:00;;;;;;;31.15;14.90;;;;;;;;;;4275363;33;20153;-79
2021/10/07 16:32:46;;;;;;;25.12;14.10;;;;;;;;;;4287724;33;20191;-81
2021/10/07 16:35:31;;;;;;;41.22;14.77;;;;;;;;;;4286101;33;20239;-80
2021/10/07 16:41:40;;;;;;;26.33;14.73;;;;;;;;;;4215922;34;20214;-80
2021/10/07 16:44:19;;;;;;;23.75;14.35;;;;;;;;;;4216575;34;20130;-80
2021/10/07 16:46:54;;;;;;;30.55;15.35;;;;;;;;;;4216175;34;20185;-79
2021/10/07 16:49:38;;;;;;;;;;;;;;;;;;;;;
2021/10/07 16:52:14;;;;;;;25.37;14.43;;;;;;;;;;4288550;33;20148;-80
2021/10/07 16:54:42;;;;;;;27.58;15.98;;;;;;;;;;4289112;33;20159;-79
2021/10/07 16:57:21;;;;;;;31.10;15.23;;;;;;;;;;4284819;33;20192;-80
2021/10/07 17:00:06;;;;;;;29.35;15.68;;;;;;;;;;4289654;33;20513;-79
2021/10/07 17:03:02;;;;;;;39.13;17.17;;;;;;;;;;4301851;33;20194;-79
2021/10/07 17:05:36;;;;;;;32.08;16.33;;;;;;;;;;4303368;33;20167;-79
2021/10/07 17:08:10;;;;;;;50.55;16.65;;;;;;;;;;4302867;33;20458;-80
2021/10/07 17:10:36;;;;;;;53.38;17.37;;;;;;;;;;4302136;33;20166;-80
2021/10/07 17:16:15;;;;;;;40.80;17.75;;;;;;;;;;4302993;33;20151;-81
2021/10/07 17:18:50;;;;;;;35.42;18.35;;;;;;;;;;4303678;33;20159;-80
2021/10/07 17:21:28;;;;;;;31.92;18.65;;;;;;;;;;4301790;33;20480;-79
2021/10/07 17:24:05;;;;;;;33.90;18.58;;;;;;;;;;4289464;33;20203;-78
2021/10/07 17:26:30;;;;;;;36.05;18.45;;;;;;;;;;4303023;33;20211;-77
2021/10/07 17:29:02;;;;;;;52.33;18.27;;;;;;;;;;4301945;33;20145;-81
2021/10/07 17:31:45;;;;;;;34.30;17.85;;;;;;;;;;4300698;33;20454;-78
2021/10/07 17:34:11;;;;;;;39.50;18.85;;;;;;;;;;4312074;33;20581;-77
2021/10/07 17:36:55;;;;;;;33.35;18.55;;;;;;;;;;4302080;33;20232;-77
2021/10/07 17:39:41;;;;;;;38.13;18.08;;;;;;;;;;4302192;33;20145;-77
2021/10/07 17:42:13;;;;;;;36.38;18.23;;;;;;;;;;4302304;33;20151;-78
2021/10/07 17:44:38;;;;;;;36.50;18.37;;;;;;;;;;4301495;33;20194;-78
2021/10/07 17:47:03;;;;;;;46.13;19.95;;;;;;;;;;4302023;33;20464;-78
2021/10/07 17:49:32;;;;;;;30.88;19.05;;;;;;;;;;4301047;33;20148;-78
2021/10/07 17:52:14;;;;;;;37.15;20.40;;;;;;;;;;4301919;33;20161;-77
2021/10/07 17:54:40;;;;;;;32.30;18.87;;;;;;;;;;4282166;33;20190;-77
2021/10/07 17:57:08;;;;;;;29.10;18.83;;;;;;;;;;4296846;33;20156;-77
2021/10/07 17:59:33;;;;;;;26.60;18.17;;;;;;;;;;4299203;33;20247;-80
2021/10/07 18:02:06;;;;;;;50.03;21.73;;;;;;;;;;4301525;33;20187;-79
2021/10/07 18:04:34;;;;;;;35.72;21.42;;;;;;;;;;4308108;33;20174;-78
2021/10/07 18:07:10;;;;;;;40.45;22.13;;;;;;;;;;4302021;33;20152;-78
2021/10/07 18:12:51;;;;;;;45.67;24.35;;;;;;;;;;4301952;33;20237;-78
2021/10/07 18:15:20;;;;;;;38.65;22.67;;;;;;;;;;4301817;33;20159;-78
2021/10/07 18:17:52;;;;;;;34.88;20.60;;;;;;;;;;4301404;33;20144;-77
2021/10/07 18:20:20;;;;;;;34.20;21.75;;;;;;;;;;4300861;33;20502;-77
2021/10/07 18:22:49;;;;;;;39.80;23.15;;;;;;;;;;4301437;33;20141;-78
2021/10/07 18:25:23;;;;;;;43.05;23.80;;;;;;;;;;4301578;33;20140;-78
2021/10/07 18:28:03;;;;;;;38.50;23.38;;;;;;;;;;4301995;33;20171;-78
2021/10/07 18:30:28;;;;;;;33.30;20.80;;;;;;;;;;4298492;33;20224;-77
2021/10/07 18:32:56;;;;;;;34.75;20.52;;;;;;;;;;4286798;33;20138;-77
2021/10/07 18:35:22;;;;;;;31.17;19.73;;;;;;;;;;4295025;33;20518;-77
2021/10/07 18:37:52;;;;;;;30.88;19.70;;;;;;;;;;4300936;33;20490;-77
2021/10/07 18:40:23;;;;;;;41.42;23.87;;;;;;;;;;4299209;33;20157;-77
2021/10/07 18:42:57;;;;;;;50.95;22.60;;;;;;;;;;4301298;33;20168;-77
2021/10/07 18:45:29;;;;;;;29.30;19.35;;;;;;;;;;4299864;33;20167;-77
2021/10/07 18:48:00;;;;;;;28.55;18.77;;;;;;;;;;4286117;33;20168;-77
2021/10/07 18:50:25;;;;;;;37.78;22.55;;;;;;;;;;4299889;33;20335;-77
2021/10/07 18:52:56;;;;;;;32.55;20.42;;;;;;;;;;4300404;33;20167;-77
2021/10/07 18:55:24;;;;;;;49.63;20.80;;;;;;;;;;4301355;33;20152;-77
2021/10/07 18:57:50;;;;;;;40.88;22.33;;;;;;;;;;4301264;33;20532;-77
2021/10/07 19:00:15;;;;;;;40.42;22.13;;;;;;;;;;4301849;33;20159;-77
2021/10/07 19:02:40;;;;;;;38.22;24.60;;;;;;;;;;4301407;33;20191;-77
2021/10/07 19:05:06;;;;;;;43.55;21.52;;;;;;;;;;4300604;33;20501;-77
2021/10/07 19:07:31;;;;;;;33.90;20.30;;;;;;;;;;4301617;33;20171;-77
2021/10/07 19:09:57;;;;;;;27.13;18.83;;;;;;;;;;4301282;33;20148;-77
2021/10/07 19:12:22;;;;;;;33.85;20.05;;;;;;;;;;4301135;33;20238;-77
2021/10/07 19:14:55;;;;;;;33.78;20.92;;;;;;;;;;4301319;33;20194;-77
2021/10/07 19:17:20;;;;;;;31.95;20.98;;;;;;;;;;4287368;33;20152;-78
2021/10/07 19:19:48;;;;;;;28.35;20.20;;;;;;;;;;4299793;33;20263;-78
2021/10/07 19:22:14;;;;;;;31.85;21.27;;;;;;;;;;4301448;33;20183;-78
2021/10/07 19:24:39;;;;;;;29.95;19.33;;;;;;;;;;4299781;33;20489;-78
2021/10/07 19:27:07;;;;;;;33.63;21.45;;;;;;;;;;4301230;33;20133;-78
2021/10/07 19:29:37;;;;;;;30.17;20.65;;;;;;;;;;4301269;33;20235;-78
2021/10/07 19:32:05;;;;;;;35.30;21.75;;;;;;;;;;4300408;33;20195;-77
2021/10/07 19:34:31;;;;;;;36.90;23.10;;;;;;;;;;4299986;33;20166;-78
2021/10/07 19:37:09;;;;;;;35.20;22.08;;;;;;;;;;4301865;33;20160;-78
2021/10/07 19:40:15;;;;;;;28.62;20.15;;;;;;;;;;4301600;33;20153;-77
2021/10/07 19:42:42;;;;;;;38.20;21.65;;;;;;;;;;4298844;33;20239;-77
2021/10/07 19:45:10;;;;;;;34.50;21.70;;;;;;;;;;4303103;33;20649;-77
2021/10/07 19:47:38;;;;;;;33.05;20.80;;;;;;;;;;4304174;33;20158;-77
2021/10/07 19:50:04;;;;;;;31.20;20.35;;;;;;;;;;4303619;33;20232;-77
2021/10/07 19:52:32;;;;;;;32.00;21.60;;;;;;;;;;4303615;33;20133;-77
2021/10/07 19:54:57;;;;;;;44.90;24.10;;;;;;;;;;4303898;33;20219;-78
2021/10/07 19:57:22;;;;;;;34.75;23.02;;;;;;;;;;4288243;33;20200;-78
2021/10/07 19:59:48;;;;;;;42.83;25.45;;;;;;;;;;4288965;33;20232;-78
2021/10/07 20:02:15;;;;;;;38.22;23.58;;;;;;;;;;4289748;33;20481;-78
2021/10/07 20:04:41;;;;;;;40.53;23.67;;;;;;;;;;4289298;33;20153;-77
2021/10/07 20:07:06;;;;;;;35.38;23.80;;;;;;;;;;4288931;33;20198;-78